sensor_id;sensor_type;location;lat;lon;timestamp;temperature;humidity
10336;DHT22;5213;53.548;9.930;2023-06-22T00:00:58;18.10;99.90
10336;DHT22;5213;53.548;9.930;2023-06-22T00:03:24;18.00;99.90
10336;DHT22;5213;53.548;9.930;2023-06-22T00:05:51;17.90;99.90
10336;DHT22;5213;53.548;9.930;2023-06-22T00:08:17;18.00;99.90
10336;DHT22;5213;53.548;9.930;2023-06-22T00:10:43;18.10;99.90
10336;DHT22;5213;53.548;9.930;2023-06-22T00:13:09;18.20;99.90
10336;DHT22;5213;53.548;9.930;2023-06-22T00:15:37;18.30;99.90
10336;DHT22;5213;53.548;9.930;2023-06-22T00:18:05;18.30;99.90
10336;DHT22;5213;53.548;9.930;2023-06-22T00:20:31;18.40;99.90
10336;DHT22;5213;53.548;9.930;2023-06-22T00:22:58;18.40;99.90
10336;DHT22;5213;53.548;9.930;2023-06-22T00:25:24;18.40;99.90
10336;DHT22;5213;53.548;9.930;2023-06-22T00:27:50;18.50;99.90
10336;DHT22;5213;53.548;9.930;2023-06-22T00:30:16;18.30;99.90
10336;DHT22;5213;53.548;9.930;2023-06-22T00:32:43;18.40;99.90
10336;DHT22;5213;53.548;9.930;2023-06-22T00:35:08;18.40;99.90
10336;DHT22;5213;53.548;9.930;2023-06-22T00:37:37;18.50;99.90
10336;DHT22;5213;53.548;9.930;2023-06-22T00:40:04;18.70;99.90
10336;DHT22;5213;53.548;9.930;2023-06-22T00:42:30;18.60;99.90
10336;DHT22;5213;53.548;9.930;2023-06-22T00:44:56;18.60;99.90
10336;DHT22;5213;53.548;9.930;2023-06-22T00:47:22;18.70;99.90
10336;DHT22;5213;53.548;9.930;2023-06-22T00:49:49;18.70;99.90
10336;DHT22;5213;53.548;9.930;2023-06-22T00:52:20;18.70;99.90
10336;DHT22;5213;53.548;9.930;2023-06-22T00:54:51;18.70;99.90
10336;DHT22;5213;53.548;9.930;2023-06-22T00:57:17;18.80;99.90
10336;DHT22;5213;53.548;9.930;2023-06-22T00:59:45;18.50;99.90
10336;DHT22;5213;53.548;9.930;2023-06-22T01:02:11;18.50;99.90
10336;DHT22;5213;53.548;9.930;2023-06-22T01:04:38;18.50;99.90
10336;DHT22;5213;53.548;9.930;2023-06-22T01:07:13;18.50;99.90
10336;DHT22;5213;53.548;9.930;2023-06-22T01:10:13;18.60;99.90
10336;DHT22;5213;53.548;9.930;2023-06-22T01:12:45;18.60;99.90
10336;DHT22;5213;53.548;9.930;2023-06-22T01:15:21;18.60;99.90
10336;DHT22;5213;53.548;9.930;2023-06-22T01:17:48;18.60;99.90
10336;DHT22;5213;53.548;9.930;2023-06-22T01:20:15;18.50;99.90
10336;DHT22;5213;53.548;9.930;2023-06-22T01:23:02;18.50;99.90
10336;DHT22;5213;53.548;9.930;2023-06-22T01:25:43;18.60;99.90
10336;DHT22;5213;53.548;9.930;2023-06-22T01:30:58;18.50;99.90
10336;DHT22;5213;53.548;9.930;2023-06-22T01:33:33;18.40;99.90
10336;DHT22;5213;53.548;9.930;2023-06-22T01:36:01;18.30;99.90
10336;DHT22;5213;53.548;9.930;2023-06-22T01:38:28;18.30;99.90
10336;DHT22;5213;53.548;9.930;2023-06-22T01:40:55;18.40;99.90
10336;DHT22;5213;53.548;9.930;2023-06-22T01:43:22;18.30;99.90
10336;DHT22;5213;53.548;9.930;2023-06-22T01:45:50;18.30;99.90
10336;DHT22;5213;53.548;9.930;2023-06-22T01:48:17;18.20;99.90
10336;DHT22;5213;53.548;9.930;2023-06-22T01:50:42;18.30;99.90
10336;DHT22;5213;53.548;9.930;2023-06-22T01:53:08;18.20;99.90
10336;DHT22;5213;53.548;9.930;2023-06-22T01:55:34;18.20;99.90
10336;DHT22;5213;53.548;9.930;2023-06-22T01:58:00;18.10;99.90
10336;DHT22;5213;53.548;9.930;2023-06-22T02:00:27;18.10;99.90
10336;DHT22;5213;53.548;9.930;2023-06-22T02:02:59;18.00;99.90
10336;DHT22;5213;53.548;9.930;2023-06-22T02:05:29;18.00;99.90
10336;DHT22;5213;53.548;9.930;2023-06-22T02:08:02;18.00;99.90
10336;DHT22;5213;53.548;9.930;2023-06-22T02:10:31;17.90;99.90
10336;DHT22;5213;53.548;9.930;2023-06-22T02:12:58;17.90;99.90
10336;DHT22;5213;53.548;9.930;2023-06-22T02:15:24;18.00;99.90
10336;DHT22;5213;53.548;9.930;2023-06-22T02:17:51;18.00;99.90
10336;DHT22;5213;53.548;9.930;2023-06-22T02:20:16;18.00;99.90
10336;DHT22;5213;53.548;9.930;2023-06-22T02:22:42;18.00;99.90
10336;DHT22;5213;53.548;9.930;2023-06-22T02:25:08;17.90;99.90
10336;DHT22;5213;53.548;9.930;2023-06-22T02:27:34;17.80;99.90
10336;DHT22;5213;53.548;9.930;2023-06-22T02:29:59;17.80;99.90
10336;DHT22;5213;53.548;9.930;2023-06-22T02:32:25;17.70;99.90
10336;DHT22;5213;53.548;9.930;2023-06-22T02:34:50;17.80;99.90
10336;DHT22;5213;53.548;9.930;2023-06-22T02:37:17;17.70;99.90
10336;DHT22;5213;53.548;9.930;2023-06-22T02:39:43;17.90;99.90
10336;DHT22;5213;53.548;9.930;2023-06-22T02:42:08;17.70;99.90
10336;DHT22;5213;53.548;9.930;2023-06-22T02:44:36;17.70;99.90
10336;DHT22;5213;53.548;9.930;2023-06-22T02:47:02;17.70;99.90
10336;DHT22;5213;53.548;9.930;2023-06-22T02:49:27;17.70;99.90
10336;DHT22;5213;53.548;9.930;2023-06-22T02:51:53;17.60;99.90
10336;DHT22;5213;53.548;9.930;2023-06-22T02:54:19;17.80;99.90
10336;DHT22;5213;53.548;9.930;2023-06-22T02:56:44;17.60;99.90
10336;DHT22;5213;53.548;9.930;2023-06-22T02:59:10;17.50;99.90
10336;DHT22;5213;53.548;9.930;2023-06-22T03:01:38;17.40;99.90
10336;DHT22;5213;53.548;9.930;2023-06-22T03:04:06;17.40;99.90
10336;DHT22;5213;53.548;9.930;2023-06-22T03:06:32;17.50;99.90
10336;DHT22;5213;53.548;9.930;2023-06-22T03:09:07;17.40;99.90
10336;DHT22;5213;53.548;9.930;2023-06-22T03:11:34;17.40;99.90
10336;DHT22;5213;53.548;9.930;2023-06-22T03:14:02;17.30;99.90
10336;DHT22;5213;53.548;9.930;2023-06-22T03:16:28;17.30;99.90
10336;DHT22;5213;53.548;9.930;2023-06-22T03:18:54;17.30;99.90
10336;DHT22;5213;53.548;9.930;2023-06-22T03:21:22;17.40;99.90
10336;DHT22;5213;53.548;9.930;2023-06-22T03:23:48;17.30;99.90
10336;DHT22;5213;53.548;9.930;2023-06-22T03:26:18;17.30;99.90
10336;DHT22;5213;53.548;9.930;2023-06-22T03:28:44;17.30;99.90
10336;DHT22;5213;53.548;9.930;2023-06-22T03:31:09;17.40;99.90
10336;DHT22;5213;53.548;9.930;2023-06-22T03:33:35;17.30;99.90
10336;DHT22;5213;53.548;9.930;2023-06-22T03:36:01;17.30;99.90
10336;DHT22;5213;53.548;9.930;2023-06-22T03:38:26;17.40;99.90
10336;DHT22;5213;53.548;9.930;2023-06-22T03:40:52;17.40;99.90
10336;DHT22;5213;53.548;9.930;2023-06-22T03:43:17;17.40;1.00
10336;DHT22;5213;53.548;9.930;2023-06-22T03:45:43;17.50;99.90
10336;DHT22;5213;53.548;9.930;2023-06-22T03:48:11;17.50;99.90
10336;DHT22;5213;53.548;9.930;2023-06-22T03:50:37;17.60;99.90
10336;DHT22;5213;53.548;9.930;2023-06-22T03:53:02;17.80;99.90
10336;DHT22;5213;53.548;9.930;2023-06-22T03:55:28;17.90;99.90
10336;DHT22;5213;53.548;9.930;2023-06-22T03:57:54;18.00;99.90
10336;DHT22;5213;53.548;9.930;2023-06-22T04:00:22;18.10;99.90
10336;DHT22;5213;53.548;9.930;2023-06-22T04:02:48;18.20;99.90
10336;DHT22;5213;53.548;9.930;2023-06-22T04:05:14;18.30;99.90
10336;DHT22;5213;53.548;9.930;2023-06-22T04:07:39;18.30;99.90
10336;DHT22;5213;53.548;9.930;2023-06-22T04:10:05;18.30;99.90
10336;DHT22;5213;53.548;9.930;2023-06-22T04:12:31;18.30;99.90
10336;DHT22;5213;53.548;9.930;2023-06-22T04:14:56;18.30;99.90
10336;DHT22;5213;53.548;9.930;2023-06-22T04:17:22;18.40;99.90
10336;DHT22;5213;53.548;9.930;2023-06-22T04:19:50;18.40;99.90
10336;DHT22;5213;53.548;9.930;2023-06-22T04:22:16;18.40;99.90
10336;DHT22;5213;53.548;9.930;2023-06-22T04:24:41;18.40;99.90
10336;DHT22;5213;53.548;9.930;2023-06-22T04:27:07;18.50;99.90
10336;DHT22;5213;53.548;9.930;2023-06-22T04:29:33;18.70;99.90
10336;DHT22;5213;53.548;9.930;2023-06-22T04:31:58;18.70;99.90
10336;DHT22;5213;53.548;9.930;2023-06-22T04:34:28;18.70;99.90
10336;DHT22;5213;53.548;9.930;2023-06-22T04:36:54;18.80;99.90
10336;DHT22;5213;53.548;9.930;2023-06-22T04:39:20;18.90;99.90
10336;DHT22;5213;53.548;9.930;2023-06-22T04:41:46;19.00;99.90
10336;DHT22;5213;53.548;9.930;2023-06-22T04:44:12;19.20;99.90
10336;DHT22;5213;53.548;9.930;2023-06-22T04:46:39;19.30;99.90
10336;DHT22;5213;53.548;9.930;2023-06-22T04:49:08;19.30;99.90
10336;DHT22;5213;53.548;9.930;2023-06-22T04:51:42;19.40;99.90
10336;DHT22;5213;53.548;9.930;2023-06-22T04:54:08;19.20;99.90
10336;DHT22;5213;53.548;9.930;2023-06-22T04:56:34;19.40;99.90
10336;DHT22;5213;53.548;9.930;2023-06-22T04:59:00;19.50;99.90
10336;DHT22;5213;53.548;9.930;2023-06-22T05:01:26;19.50;99.90
10336;DHT22;5213;53.548;9.930;2023-06-22T05:03:52;19.50;99.90
10336;DHT22;5213;53.548;9.930;2023-06-22T05:06:27;19.60;99.90
10336;DHT22;5213;53.548;9.930;2023-06-22T05:08:56;19.70;99.90
10336;DHT22;5213;53.548;9.930;2023-06-22T05:11:28;19.60;99.90
10336;DHT22;5213;53.548;9.930;2023-06-22T05:13:56;19.60;99.90
10336;DHT22;5213;53.548;9.930;2023-06-22T05:16:22;19.70;99.90
10336;DHT22;5213;53.548;9.930;2023-06-22T05:18:52;19.80;99.90
10336;DHT22;5213;53.548;9.930;2023-06-22T05:21:21;20.00;99.90
10336;DHT22;5213;53.548;9.930;2023-06-22T05:23:46;20.00;99.90
10336;DHT22;5213;53.548;9.930;2023-06-22T05:26:12;20.10;99.90
10336;DHT22;5213;53.548;9.930;2023-06-22T05:28:38;20.40;99.90
10336;DHT22;5213;53.548;9.930;2023-06-22T05:31:03;20.60;99.90
10336;DHT22;5213;53.548;9.930;2023-06-22T05:33:29;20.90;99.90
10336;DHT22;5213;53.548;9.930;2023-06-22T05:35:54;21.20;99.90
10336;DHT22;5213;53.548;9.930;2023-06-22T05:38:20;21.40;99.90
10336;DHT22;5213;53.548;9.930;2023-06-22T05:40:46;21.40;99.90
10336;DHT22;5213;53.548;9.930;2023-06-22T05:43:11;21.50;99.90
10336;DHT22;5213;53.548;9.930;2023-06-22T05:45:37;21.30;99.90
10336;DHT22;5213;53.548;9.930;2023-06-22T05:48:02;21.40;99.90
10336;DHT22;5213;53.548;9.930;2023-06-22T05:50:28;21.80;99.90
10336;DHT22;5213;53.548;9.930;2023-06-22T05:52:54;21.60;99.90
10336;DHT22;5213;53.548;9.930;2023-06-22T05:55:19;21.40;99.90
10336;DHT22;5213;53.548;9.930;2023-06-22T05:57:45;21.50;99.90
10336;DHT22;5213;53.548;9.930;2023-06-22T06:00:11;21.80;99.90
10336;DHT22;5213;53.548;9.930;2023-06-22T06:02:37;21.90;99.90
10336;DHT22;5213;53.548;9.930;2023-06-22T06:05:10;21.60;99.90
10336;DHT22;5213;53.548;9.930;2023-06-22T06:07:35;21.50;99.90
10336;DHT22;5213;53.548;9.930;2023-06-22T06:10:03;21.60;99.90
10336;DHT22;5213;53.548;9.930;2023-06-22T06:12:30;21.60;99.90
10336;DHT22;5213;53.548;9.930;2023-06-22T06:14:55;21.70;99.90
10336;DHT22;5213;53.548;9.930;2023-06-22T06:17:22;21.80;99.90
10336;DHT22;5213;53.548;9.930;2023-06-22T06:19:47;21.80;99.90
10336;DHT22;5213;53.548;9.930;2023-06-22T06:22:13;22.20;99.90
10336;DHT22;5213;53.548;9.930;2023-06-22T06:24:38;22.40;99.90
10336;DHT22;5213;53.548;9.930;2023-06-22T06:27:04;22.40;99.90
10336;DHT22;5213;53.548;9.930;2023-06-22T06:29:31;22.40;99.90
10336;DHT22;5213;53.548;9.930;2023-06-22T06:31:56;22.70;99.90
10336;DHT22;5213;53.548;9.930;2023-06-22T06:34:22;22.80;99.90
10336;DHT22;5213;53.548;9.930;2023-06-22T06:36:48;23.10;99.90
10336;DHT22;5213;53.548;9.930;2023-06-22T06:39:14;22.70;99.90
10336;DHT22;5213;53.548;9.930;2023-06-22T06:41:39;22.50;99.90
10336;DHT22;5213;53.548;9.930;2023-06-22T06:44:05;22.30;99.90
10336;DHT22;5213;53.548;9.930;2023-06-22T06:46:30;22.30;99.90
10336;DHT22;5213;53.548;9.930;2023-06-22T06:48:56;22.10;99.90
10336;DHT22;5213;53.548;9.930;2023-06-22T06:51:22;22.60;99.90
10336;DHT22;5213;53.548;9.930;2023-06-22T06:53:47;22.50;99.90
10336;DHT22;5213;53.548;9.930;2023-06-22T06:56:13;22.60;99.90
10336;DHT22;5213;53.548;9.930;2023-06-22T06:58:41;22.50;99.90
10336;DHT22;5213;53.548;9.930;2023-06-22T07:01:08;22.40;99.90
10336;DHT22;5213;53.548;9.930;2023-06-22T07:03:33;22.30;99.90
10336;DHT22;5213;53.548;9.930;2023-06-22T07:05:59;21.90;99.90
10336;DHT22;5213;53.548;9.930;2023-06-22T07:08:25;21.90;99.90
10336;DHT22;5213;53.548;9.930;2023-06-22T07:10:52;22.00;99.90
10336;DHT22;5213;53.548;9.930;2023-06-22T07:13:18;22.20;99.90
10336;DHT22;5213;53.548;9.930;2023-06-22T07:15:43;22.30;99.90
10336;DHT22;5213;53.548;9.930;2023-06-22T07:18:09;22.30;99.90
10336;DHT22;5213;53.548;9.930;2023-06-22T07:20:35;22.40;99.90
10336;DHT22;5213;53.548;9.930;2023-06-22T07:23:01;22.80;99.90
10336;DHT22;5213;53.548;9.930;2023-06-22T07:25:26;22.90;99.90
10336;DHT22;5213;53.548;9.930;2023-06-22T07:28:03;23.00;99.90
10336;DHT22;5213;53.548;9.930;2023-06-22T07:30:30;23.30;99.90
10336;DHT22;5213;53.548;9.930;2023-06-22T07:32:56;23.30;99.90
10336;DHT22;5213;53.548;9.930;2023-06-22T07:35:22;23.40;99.90
10336;DHT22;5213;53.548;9.930;2023-06-22T07:37:47;23.50;99.90
10336;DHT22;5213;53.548;9.930;2023-06-22T07:40:13;23.60;99.90
10336;DHT22;5213;53.548;9.930;2023-06-22T07:42:39;24.10;99.90
10336;DHT22;5213;53.548;9.930;2023-06-22T07:45:06;24.40;99.90
10336;DHT22;5213;53.548;9.930;2023-06-22T07:47:33;24.50;99.90
10336;DHT22;5213;53.548;9.930;2023-06-22T07:50:01;24.60;99.90
10336;DHT22;5213;53.548;9.930;2023-06-22T07:52:30;24.40;99.90
10336;DHT22;5213;53.548;9.930;2023-06-22T07:54:56;24.90;99.90
10336;DHT22;5213;53.548;9.930;2023-06-22T07:57:21;25.50;99.90
10336;DHT22;5213;53.548;9.930;2023-06-22T07:59:47;25.80;99.90
10336;DHT22;5213;53.548;9.930;2023-06-22T08:02:13;25.70;99.90
10336;DHT22;5213;53.548;9.930;2023-06-22T08:04:39;25.60;99.90
10336;DHT22;5213;53.548;9.930;2023-06-22T08:07:05;25.70;99.90
10336;DHT22;5213;53.548;9.930;2023-06-22T08:09:32;25.80;99.90
10336;DHT22;5213;53.548;9.930;2023-06-22T08:11:58;25.80;99.90
10336;DHT22;5213;53.548;9.930;2023-06-22T08:14:25;25.70;99.90
10336;DHT22;5213;53.548;9.930;2023-06-22T08:16:51;25.70;99.90
10336;DHT22;5213;53.548;9.930;2023-06-22T08:19:17;25.60;99.90
10336;DHT22;5213;53.548;9.930;2023-06-22T08:21:43;25.60;99.90
10336;DHT22;5213;53.548;9.930;2023-06-22T08:24:09;25.50;99.90
10336;DHT22;5213;53.548;9.930;2023-06-22T08:26:34;25.40;99.90
10336;DHT22;5213;53.548;9.930;2023-06-22T08:29:05;25.50;99.90
10336;DHT22;5213;53.548;9.930;2023-06-22T08:31:31;25.80;99.90
10336;DHT22;5213;53.548;9.930;2023-06-22T08:34:00;25.90;99.90
10336;DHT22;5213;53.548;9.930;2023-06-22T08:36:26;26.10;99.90
10336;DHT22;5213;53.548;9.930;2023-06-22T08:38:54;26.10;99.90
10336;DHT22;5213;53.548;9.930;2023-06-22T08:41:23;25.80;99.90
10336;DHT22;5213;53.548;9.930;2023-06-22T08:43:48;25.60;99.90
10336;DHT22;5213;53.548;9.930;2023-06-22T08:46:14;25.70;99.90
10336;DHT22;5213;53.548;9.930;2023-06-22T08:48:40;25.80;99.90
10336;DHT22;5213;53.548;9.930;2023-06-22T08:51:05;25.60;99.90
10336;DHT22;5213;53.548;9.930;2023-06-22T08:53:31;25.60;99.90
10336;DHT22;5213;53.548;9.930;2023-06-22T08:55:56;25.60;99.90
10336;DHT22;5213;53.548;9.930;2023-06-22T08:58:22;25.90;99.90
10336;DHT22;5213;53.548;9.930;2023-06-22T09:00:49;26.10;99.90
10336;DHT22;5213;53.548;9.930;2023-06-22T09:03:16;26.20;99.90
10336;DHT22;5213;53.548;9.930;2023-06-22T09:05:42;26.00;99.90
10336;DHT22;5213;53.548;9.930;2023-06-22T09:08:08;26.20;99.90
10336;DHT22;5213;53.548;9.930;2023-06-22T09:10:33;25.90;99.90
10336;DHT22;5213;53.548;9.930;2023-06-22T09:12:59;26.10;99.90
10336;DHT22;5213;53.548;9.930;2023-06-22T09:15:25;26.30;99.90
10336;DHT22;5213;53.548;9.930;2023-06-22T09:17:50;26.20;99.90
10336;DHT22;5213;53.548;9.930;2023-06-22T09:20:19;26.30;99.90
10336;DHT22;5213;53.548;9.930;2023-06-22T09:22:45;26.20;99.90
10336;DHT22;5213;53.548;9.930;2023-06-22T09:25:11;26.30;99.90
10336;DHT22;5213;53.548;9.930;2023-06-22T09:27:36;26.30;99.90
10336;DHT22;5213;53.548;9.930;2023-06-22T09:30:02;26.40;99.90
10336;DHT22;5213;53.548;9.930;2023-06-22T09:32:29;26.30;99.90
10336;DHT22;5213;53.548;9.930;2023-06-22T09:34:54;26.30;99.90
10336;DHT22;5213;53.548;9.930;2023-06-22T09:37:20;26.40;99.90
10336;DHT22;5213;53.548;9.930;2023-06-22T09:39:45;26.30;99.90
10336;DHT22;5213;53.548;9.930;2023-06-22T09:42:11;26.20;99.90
10336;DHT22;5213;53.548;9.930;2023-06-22T09:44:38;26.10;99.90
10336;DHT22;5213;53.548;9.930;2023-06-22T09:47:04;26.30;99.90
10336;DHT22;5213;53.548;9.930;2023-06-22T09:49:30;26.60;99.90
10336;DHT22;5213;53.548;9.930;2023-06-22T09:51:57;26.60;99.90
10336;DHT22;5213;53.548;9.930;2023-06-22T09:54:23;26.60;99.90
10336;DHT22;5213;53.548;9.930;2023-06-22T09:56:48;26.60;99.90
10336;DHT22;5213;53.548;9.930;2023-06-22T09:59:14;26.70;99.90
10336;DHT22;5213;53.548;9.930;2023-06-22T10:01:39;26.70;99.90
10336;DHT22;5213;53.548;9.930;2023-06-22T10:04:05;26.70;99.90
10336;DHT22;5213;53.548;9.930;2023-06-22T10:06:31;26.90;99.90
10336;DHT22;5213;53.548;9.930;2023-06-22T10:08:56;26.90;99.90
10336;DHT22;5213;53.548;9.930;2023-06-22T10:11:22;26.70;99.90
10336;DHT22;5213;53.548;9.930;2023-06-22T10:13:54;27.00;99.90
10336;DHT22;5213;53.548;9.930;2023-06-22T10:16:20;26.80;99.90
10336;DHT22;5213;53.548;9.930;2023-06-22T10:18:45;26.70;99.90
10336;DHT22;5213;53.548;9.930;2023-06-22T10:21:11;26.60;99.90
10336;DHT22;5213;53.548;9.930;2023-06-22T10:23:36;26.70;99.90
10336;DHT22;5213;53.548;9.930;2023-06-22T10:26:02;26.90;99.90
10336;DHT22;5213;53.548;9.930;2023-06-22T10:28:28;26.90;99.90
10336;DHT22;5213;53.548;9.930;2023-06-22T10:30:53;26.80;99.90
10336;DHT22;5213;53.548;9.930;2023-06-22T10:33:19;26.50;99.90
10336;DHT22;5213;53.548;9.930;2023-06-22T10:35:45;26.60;99.90
10336;DHT22;5213;53.548;9.930;2023-06-22T10:38:11;27.00;99.90
10336;DHT22;5213;53.548;9.930;2023-06-22T10:40:36;27.00;98.90
10336;DHT22;5213;53.548;9.930;2023-06-22T10:43:02;26.90;98.30
10336;DHT22;5213;53.548;9.930;2023-06-22T10:45:28;27.00;99.40
10336;DHT22;5213;53.548;9.930;2023-06-22T10:47:53;27.00;98.00
10336;DHT22;5213;53.548;9.930;2023-06-22T10:50:19;26.80;98.30
10336;DHT22;5213;53.548;9.930;2023-06-22T10:52:45;27.10;99.10
10336;DHT22;5213;53.548;9.930;2023-06-22T10:55:11;27.40;98.20
10336;DHT22;5213;53.548;9.930;2023-06-22T10:57:37;27.50;97.90
10336;DHT22;5213;53.548;9.930;2023-06-22T11:00:05;27.60;97.60
10336;DHT22;5213;53.548;9.930;2023-06-22T11:02:32;27.60;96.50
10336;DHT22;5213;53.548;9.930;2023-06-22T11:04:57;27.70;96.20
10336;DHT22;5213;53.548;9.930;2023-06-22T11:07:26;27.80;96.50
10336;DHT22;5213;53.548;9.930;2023-06-22T11:09:53;27.90;95.20
10336;DHT22;5213;53.548;9.930;2023-06-22T11:12:18;27.90;95.20
10336;DHT22;5213;53.548;9.930;2023-06-22T11:14:44;28.00;95.00
10336;DHT22;5213;53.548;9.930;2023-06-22T11:17:09;28.10;93.70
10336;DHT22;5213;53.548;9.930;2023-06-22T11:19:35;28.10;92.60
10336;DHT22;5213;53.548;9.930;2023-06-22T11:22:01;27.90;93.60
10336;DHT22;5213;53.548;9.930;2023-06-22T11:24:27;27.90;93.40
10336;DHT22;5213;53.548;9.930;2023-06-22T11:26:53;28.10;92.50
10336;DHT22;5213;53.548;9.930;2023-06-22T11:29:18;28.40;92.40
10336;DHT22;5213;53.548;9.930;2023-06-22T11:31:44;28.40;90.40
10336;DHT22;5213;53.548;9.930;2023-06-22T11:34:09;28.50;90.30
10336;DHT22;5213;53.548;9.930;2023-06-22T11:36:35;28.90;90.30
10336;DHT22;5213;53.548;9.930;2023-06-22T11:39:01;28.90;87.30
10336;DHT22;5213;53.548;9.930;2023-06-22T11:41:27;29.10;85.30
10336;DHT22;5213;53.548;9.930;2023-06-22T11:43:53;29.60;84.20
10336;DHT22;5213;53.548;9.930;2023-06-22T11:46:18;29.90;91.20
10336;DHT22;5213;53.548;9.930;2023-06-22T11:48:44;29.80;74.10
10336;DHT22;5213;53.548;9.930;2023-06-22T11:51:10;29.40;76.60
10336;DHT22;5213;53.548;9.930;2023-06-22T11:53:36;29.60;74.50
10336;DHT22;5213;53.548;9.930;2023-06-22T11:56:02;29.80;74.50
10336;DHT22;5213;53.548;9.930;2023-06-22T11:58:27;29.40;75.60
10336;DHT22;5213;53.548;9.930;2023-06-22T12:00:53;29.30;77.60
10336;DHT22;5213;53.548;9.930;2023-06-22T12:03:19;29.30;76.60
10336;DHT22;5213;53.548;9.930;2023-06-22T12:05:46;29.40;75.90
10336;DHT22;5213;53.548;9.930;2023-06-22T12:08:12;29.50;73.90
10336;DHT22;5213;53.548;9.930;2023-06-22T12:10:39;29.20;72.30
10336;DHT22;5213;53.548;9.930;2023-06-22T12:13:04;29.10;73.80
10336;DHT22;5213;53.548;9.930;2023-06-22T12:15:30;28.90;76.50
10336;DHT22;5213;53.548;9.930;2023-06-22T12:17:56;28.70;81.10
10336;DHT22;5213;53.548;9.930;2023-06-22T12:20:21;29.20;76.00
10336;DHT22;5213;53.548;9.930;2023-06-22T12:22:47;29.30;74.10
10336;DHT22;5213;53.548;9.930;2023-06-22T12:25:13;29.00;76.20
10336;DHT22;5213;53.548;9.930;2023-06-22T12:27:38;28.60;78.80
10336;DHT22;5213;53.548;9.930;2023-06-22T12:30:04;28.70;78.00
10336;DHT22;5213;53.548;9.930;2023-06-22T12:32:30;29.40;75.40
10336;DHT22;5213;53.548;9.930;2023-06-22T12:34:56;29.70;70.30
10336;DHT22;5213;53.548;9.930;2023-06-22T12:37:22;29.50;69.40
10336;DHT22;5213;53.548;9.930;2023-06-22T12:39:48;29.50;69.40
10336;DHT22;5213;53.548;9.930;2023-06-22T12:42:15;29.70;67.70
10336;DHT22;5213;53.548;9.930;2023-06-22T12:44:41;29.70;67.30
10336;DHT22;5213;53.548;9.930;2023-06-22T12:47:07;29.80;66.80
10336;DHT22;5213;53.548;9.930;2023-06-22T12:49:34;29.50;65.40
10336;DHT22;5213;53.548;9.930;2023-06-22T12:52:01;29.70;66.60
10336;DHT22;5213;53.548;9.930;2023-06-22T12:54:26;29.60;64.80
10336;DHT22;5213;53.548;9.930;2023-06-22T12:56:53;29.70;65.70
10336;DHT22;5213;53.548;9.930;2023-06-22T12:59:19;29.20;69.40
10336;DHT22;5213;53.548;9.930;2023-06-22T13:01:44;29.40;69.80
10336;DHT22;5213;53.548;9.930;2023-06-22T13:04:11;29.90;66.80
10336;DHT22;5213;53.548;9.930;2023-06-22T13:06:42;30.20;63.50
10336;DHT22;5213;53.548;9.930;2023-06-22T13:09:10;30.50;60.50
10336;DHT22;5213;53.548;9.930;2023-06-22T13:11:35;30.70;58.20
10336;DHT22;5213;53.548;9.930;2023-06-22T13:14:01;30.80;56.70
10336;DHT22;5213;53.548;9.930;2023-06-22T13:16:27;30.40;58.40
10336;DHT22;5213;53.548;9.930;2023-06-22T13:18:52;29.80;62.40
10336;DHT22;5213;53.548;9.930;2023-06-22T13:21:18;29.30;64.00
10336;DHT22;5213;53.548;9.930;2023-06-22T13:23:43;28.90;68.60
10336;DHT22;5213;53.548;9.930;2023-06-22T13:26:09;28.50;71.80
10336;DHT22;5213;53.548;9.930;2023-06-22T13:28:35;28.20;74.80
10336;DHT22;5213;53.548;9.930;2023-06-22T13:31:00;28.50;75.50
10336;DHT22;5213;53.548;9.930;2023-06-22T13:33:26;29.00;73.20
10336;DHT22;5213;53.548;9.930;2023-06-22T13:35:52;29.20;69.90
10336;DHT22;5213;53.548;9.930;2023-06-22T13:38:17;28.90;70.50
10336;DHT22;5213;53.548;9.930;2023-06-22T13:40:43;28.70;71.70
10336;DHT22;5213;53.548;9.930;2023-06-22T13:43:09;28.80;70.90
10336;DHT22;5213;53.548;9.930;2023-06-22T13:45:34;29.00;69.30
10336;DHT22;5213;53.548;9.930;2023-06-22T13:48:00;29.10;68.60
10336;DHT22;5213;53.548;9.930;2023-06-22T13:50:26;29.40;67.30
10336;DHT22;5213;53.548;9.930;2023-06-22T13:52:52;29.70;63.40
10336;DHT22;5213;53.548;9.930;2023-06-22T13:55:17;29.70;62.70
10336;DHT22;5213;53.548;9.930;2023-06-22T13:57:45;29.80;62.10
10336;DHT22;5213;53.548;9.930;2023-06-22T14:00:11;29.40;63.90
10336;DHT22;5213;53.548;9.930;2023-06-22T14:02:38;29.50;64.30
10336;DHT22;5213;53.548;9.930;2023-06-22T14:05:05;29.20;64.30
10336;DHT22;5213;53.548;9.930;2023-06-22T14:07:31;29.30;64.30
10336;DHT22;5213;53.548;9.930;2023-06-22T14:09:57;28.70;70.30
10336;DHT22;5213;53.548;9.930;2023-06-22T14:12:24;29.00;67.90
10336;DHT22;5213;53.548;9.930;2023-06-22T14:14:50;29.20;66.80
10336;DHT22;5213;53.548;9.930;2023-06-22T14:17:15;29.20;66.20
10336;DHT22;5213;53.548;9.930;2023-06-22T14:19:41;28.90;67.10
10336;DHT22;5213;53.548;9.930;2023-06-22T14:22:06;28.70;68.70
10336;DHT22;5213;53.548;9.930;2023-06-22T14:24:32;28.40;71.60
10336;DHT22;5213;53.548;9.930;2023-06-22T14:26:58;28.30;73.50
10336;DHT22;5213;53.548;9.930;2023-06-22T14:29:24;28.30;73.40
10336;DHT22;5213;53.548;9.930;2023-06-22T14:31:50;27.90;78.00
10336;DHT22;5213;53.548;9.930;2023-06-22T14:34:16;27.90;81.60
10336;DHT22;5213;53.548;9.930;2023-06-22T14:36:42;28.00;81.20
10336;DHT22;5213;53.548;9.930;2023-06-22T14:39:08;27.80;83.50
10336;DHT22;5213;53.548;9.930;2023-06-22T14:41:34;27.50;85.20
10336;DHT22;5213;53.548;9.930;2023-06-22T14:44:00;27.40;87.70
10336;DHT22;5213;53.548;9.930;2023-06-22T14:46:27;27.00;88.90
10336;DHT22;5213;53.548;9.930;2023-06-22T14:48:52;26.90;91.70
10336;DHT22;5213;53.548;9.930;2023-06-22T14:51:18;26.90;92.20
10336;DHT22;5213;53.548;9.930;2023-06-22T14:53:45;27.00;92.70
10336;DHT22;5213;53.548;9.930;2023-06-22T14:56:11;27.00;93.00
10336;DHT22;5213;53.548;9.930;2023-06-22T14:58:39;27.10;93.60
10336;DHT22;5213;53.548;9.930;2023-06-22T15:01:05;27.10;93.00
10336;DHT22;5213;53.548;9.930;2023-06-22T15:03:34;26.90;93.50
10336;DHT22;5213;53.548;9.930;2023-06-22T15:06:01;26.80;94.00
10336;DHT22;5213;53.548;9.930;2023-06-22T15:08:27;26.80;94.90
10336;DHT22;5213;53.548;9.930;2023-06-22T15:10:53;26.80;94.50
10336;DHT22;5213;53.548;9.930;2023-06-22T15:13:18;26.60;95.10
10336;DHT22;5213;53.548;9.930;2023-06-22T15:15:46;26.70;95.60
10336;DHT22;5213;53.548;9.930;2023-06-22T15:18:16;26.60;95.60
10336;DHT22;5213;53.548;9.930;2023-06-22T15:20:42;26.40;96.50
10336;DHT22;5213;53.548;9.930;2023-06-22T15:23:12;26.30;96.20
10336;DHT22;5213;53.548;9.930;2023-06-22T15:25:38;26.20;97.40
10336;DHT22;5213;53.548;9.930;2023-06-22T15:28:04;26.10;98.00
10336;DHT22;5213;53.548;9.930;2023-06-22T15:30:29;26.10;99.50
10336;DHT22;5213;53.548;9.930;2023-06-22T15:32:56;26.20;99.50
10336;DHT22;5213;53.548;9.930;2023-06-22T15:35:22;26.10;99.60
10336;DHT22;5213;53.548;9.930;2023-06-22T15:37:48;26.20;99.90
10336;DHT22;5213;53.548;9.930;2023-06-22T15:40:13;26.00;99.90
10336;DHT22;5213;53.548;9.930;2023-06-22T15:42:39;26.00;99.90